createdAt,value
2018-06-02T00:00:22.450Z,9.00
2018-06-02T00:02:51.384Z,8.90
2018-06-02T00:05:20.347Z,9.33
2018-06-02T00:07:49.289Z,8.97
2018-06-02T00:10:18.238Z,8.27
2018-06-02T00:12:47.181Z,9.00
2018-06-02T00:15:16.160Z,9.33
2018-06-02T00:17:45.221Z,9.30
2018-06-02T00:20:14.166Z,8.53
2018-06-02T00:22:43.091Z,9.37
2018-06-02T00:25:12.055Z,9.30
2018-06-02T00:27:40.998Z,8.60
2018-06-02T00:30:09.967Z,9.67
2018-06-02T00:32:38.930Z,9.20
2018-06-02T00:35:08.705Z,9.13
2018-06-02T00:37:37.700Z,9.63
2018-06-02T00:40:06.732Z,9.40
2018-06-02T00:42:36.496Z,9.37
2018-06-02T00:45:05.469Z,10.30
2018-06-02T00:47:34.542Z,10.17
2018-06-02T00:50:03.566Z,10.53
2018-06-02T00:52:32.479Z,10.10
2018-06-02T00:55:07.288Z,11.50
2018-06-02T00:57:36.220Z,9.73
2018-06-02T01:00:05.190Z,10.17
2018-06-02T01:02:34.137Z,9.63
2018-06-02T01:05:03.175Z,10.77
2018-06-02T01:07:32.219Z,10.67
2018-06-02T01:10:01.224Z,10.13
2018-06-02T01:12:30.202Z,11.50
2018-06-02T01:14:59.202Z,11.70
2018-06-02T01:17:28.145Z,12.13
2018-06-02T01:19:57.125Z,11.73
2018-06-02T01:22:26.088Z,11.53
2018-06-02T01:24:55.030Z,11.37
2018-06-02T01:27:24.019Z,11.87
2018-06-02T01:29:52.988Z,12.27
2018-06-02T01:32:21.958Z,11.50
2018-06-02T01:34:50.904Z,12.40
2018-06-02T01:37:19.908Z,11.83
2018-06-02T01:39:49.690Z,12.07
2018-06-02T01:42:18.726Z,12.07
2018-06-02T01:44:47.682Z,12.00
2018-06-02T01:47:16.662Z,12.93
2018-06-02T01:49:45.674Z,11.73
2018-06-02T01:52:14.631Z,12.67
2018-06-02T01:54:43.595Z,11.33
2018-06-02T01:57:12.591Z,12.83
2018-06-02T01:59:41.634Z,12.07
2018-06-02T02:02:10.610Z,12.10
2018-06-02T02:04:39.611Z,12.03
2018-06-02T02:07:08.565Z,12.27
2018-06-02T02:09:37.515Z,12.13
2018-06-02T02:12:07.311Z,12.07
2018-06-02T02:14:36.300Z,11.40
2018-06-02T02:17:05.267Z,11.20
2018-06-02T02:19:34.180Z,10.83
2018-06-02T02:22:03.112Z,10.27
2018-06-02T02:24:32.882Z,10.43
2018-06-02T02:27:01.888Z,9.80
2018-06-02T02:29:30.814Z,9.67
2018-06-02T02:32:00.575Z,10.13
2018-06-02T02:34:29.518Z,8.90
2018-06-02T02:36:58.466Z,9.80
2018-06-02T02:39:27.741Z,10.00
2018-06-02T02:41:56.664Z,9.97
2018-06-02T02:44:25.629Z,10.27
2018-06-02T02:46:54.608Z,9.43
2018-06-02T02:49:23.606Z,10.20
2018-06-02T02:51:52.633Z,10.10
2018-06-02T02:54:21.570Z,9.80
2018-06-02T02:56:50.524Z,10.03
2018-06-02T02:59:19.475Z,11.00
2018-06-02T03:01:48.465Z,11.40
2018-06-02T03:04:17.497Z,10.30
2018-06-02T03:06:46.471Z,11.10
2018-06-02T03:09:15.436Z,11.70
2018-06-02T03:11:44.364Z,10.27
2018-06-02T03:14:13.289Z,11.67
2018-06-02T03:16:43.075Z,11.20
2018-06-02T03:19:12.137Z,10.60
2018-06-02T03:21:41.057Z,11.47
2018-06-02T03:24:10.202Z,11.20
2018-06-02T03:26:39.161Z,10.70
2018-06-02T03:29:08.133Z,11.00
2018-06-02T03:31:37.076Z,10.90
2018-06-02T03:34:06.124Z,10.47
2018-06-02T03:36:35.111Z,11.27
2018-06-02T03:39:05.755Z,10.00
2018-06-02T03:41:34.770Z,10.63
2018-06-02T03:44:03.722Z,9.23
2018-06-02T03:46:32.667Z,9.20
2018-06-02T03:49:01.770Z,9.70
2018-06-02T03:51:30.718Z,9.03
2018-06-02T03:53:59.675Z,9.67
2018-06-02T03:56:28.595Z,9.30
2018-06-02T03:58:57.531Z,9.33
2018-06-02T04:01:26.522Z,9.73
2018-06-02T04:03:55.470Z,10.00
2018-06-02T04:06:24.409Z,10.50
2018-06-02T04:08:53.320Z,9.30
2018-06-02T04:11:22.208Z,10.23
2018-06-02T04:13:51.113Z,10.37
2018-06-02T04:16:20.085Z,10.20
2018-06-02T04:18:49.038Z,9.77
2018-06-02T04:21:18.785Z,10.37
2018-06-02T04:23:48.637Z,9.63
2018-06-02T04:26:17.580Z,9.63
2018-06-02T04:28:46.522Z,9.77
2018-06-02T04:31:15.456Z,9.13
2018-06-02T04:33:44.379Z,8.87
2018-06-02T04:36:13.275Z,9.60
2018-06-02T04:38:42.187Z,10.17
2018-06-02T04:41:11.169Z,9.67
2018-06-02T04:43:40.344Z,9.37
2018-06-02T04:46:09.314Z,9.27
2018-06-02T04:48:38.265Z,9.10
2018-06-02T04:51:07.188Z,8.73
2018-06-02T04:56:19.741Z,8.77
2018-06-02T04:58:48.723Z,9.00
2018-06-02T05:01:17.636Z,9.30
2018-06-02T05:03:46.532Z,9.43
2018-06-02T05:06:15.553Z,10.23
2018-06-02T05:08:44.481Z,10.80
2018-06-02T05:11:13.991Z,9.70
2018-06-02T05:13:42.900Z,9.87
2018-06-02T05:16:11.796Z,9.10
2018-06-02T05:18:40.745Z,9.07
2018-06-02T05:21:10.457Z,8.67
2018-06-02T05:23:39.429Z,9.10
2018-06-02T05:26:09.125Z,10.27
2018-06-02T05:28:38.172Z,9.53
2018-06-02T05:31:07.096Z,9.40
2018-06-02T05:33:36.036Z,9.03
2018-06-02T05:36:06.185Z,8.70
2018-06-02T05:38:35.168Z,9.07
2018-06-02T05:41:04.093Z,7.70
2018-06-02T05:43:33.069Z,8.73
2018-06-02T05:46:02.092Z,8.17
2018-06-02T05:48:31.829Z,8.87
2018-06-02T05:51:00.751Z,8.13
2018-06-02T05:53:29.709Z,8.00
2018-06-02T05:55:59.390Z,7.80
2018-06-02T05:58:28.312Z,8.03
2018-06-02T06:00:58.122Z,8.20
2018-06-02T06:03:27.836Z,7.53
2018-06-02T06:05:56.834Z,7.27
2018-06-02T06:08:25.791Z,6.27
2018-06-02T06:10:55.530Z,6.40
2018-06-02T06:13:24.515Z,6.60
2018-06-02T06:15:53.451Z,6.20
2018-06-02T06:18:22.487Z,6.60
2018-06-02T06:20:52.237Z,6.20
2018-06-02T06:23:21.239Z,5.83
2018-06-02T06:25:56.398Z,6.43
2018-06-02T06:28:25.306Z,6.37
2018-06-02T06:30:54.241Z,5.80
2018-06-02T06:33:23.295Z,5.10
2018-06-02T06:35:52.329Z,5.77
2018-06-02T06:38:21.225Z,5.93
2018-06-02T06:40:50.509Z,5.83
2018-06-02T06:43:19.473Z,6.20
2018-06-02T06:45:49.256Z,5.70
2018-06-02T06:48:18.246Z,6.50
2018-06-02T06:50:47.166Z,6.30
2018-06-02T06:53:16.166Z,6.13
2018-06-02T06:55:45.099Z,5.80
2018-06-02T06:58:14.050Z,5.83
2018-06-02T07:00:43.798Z,5.93
2018-06-02T07:03:12.778Z,5.60
2018-06-02T07:05:41.723Z,6.20
2018-06-02T07:08:10.674Z,5.70
2018-06-02T07:10:39.588Z,6.00
2018-06-02T07:13:08.550Z,5.63
2018-06-02T07:15:37.503Z,5.20
2018-06-02T07:18:06.356Z,5.50
2018-06-02T07:20:35.325Z,5.80
2018-06-02T07:23:04.269Z,5.70
2018-06-02T07:25:33.209Z,5.47
2018-06-02T07:28:02.138Z,5.53
2018-06-02T07:30:31.120Z,5.33
2018-06-02T07:33:00.056Z,5.33
2018-06-02T07:35:29.719Z,5.07
2018-06-02T07:37:58.626Z,5.37
2018-06-02T07:40:27.549Z,4.83
2018-06-02T07:42:57.176Z,5.10
2018-06-02T07:45:26.107Z,5.23
2018-06-02T07:47:55.004Z,5.00
2018-06-02T07:50:23.997Z,5.37
2018-06-02T07:52:52.898Z,6.53
2018-06-02T07:55:21.814Z,5.37
2018-06-02T07:57:51.489Z,4.67
2018-06-02T08:00:20.419Z,5.03
2018-06-02T08:02:49.327Z,4.63
2018-06-02T08:05:18.285Z,5.10
2018-06-02T08:07:48.004Z,5.33
2018-06-02T08:10:17.681Z,4.67
2018-06-02T08:12:46.573Z,5.03
2018-06-02T08:15:15.502Z,4.67
2018-06-02T08:17:45.163Z,5.03
2018-06-02T08:20:15.776Z,4.90
2018-06-02T08:22:44.676Z,4.90
2018-06-02T08:25:13.589Z,5.37
2018-06-02T08:27:42.555Z,4.97
2018-06-02T08:30:11.461Z,5.27
2018-06-02T08:32:40.386Z,5.30
2018-06-02T08:35:10.030Z,5.33
2018-06-02T08:37:38.940Z,5.00
2018-06-02T08:40:07.912Z,5.83
2018-06-02T08:42:36.849Z,5.00
2018-06-02T08:45:05.774Z,5.00
2018-06-02T08:47:34.680Z,4.97
2018-06-02T08:50:03.602Z,5.23
2018-06-02T08:52:32.537Z,5.90
2018-06-02T08:55:02.234Z,5.60
2018-06-02T08:57:31.902Z,5.33
2018-06-02T09:00:00.804Z,5.23
2018-06-02T09:02:29.802Z,5.60
2018-06-02T09:04:58.730Z,5.03
2018-06-02T09:07:29.640Z,5.30
2018-06-02T09:09:59.413Z,5.40
2018-06-02T09:12:28.379Z,5.67
2018-06-02T09:14:57.307Z,5.73
2018-06-02T09:17:26.213Z,5.13
2018-06-02T09:19:55.137Z,5.07
2018-06-02T09:22:25.185Z,5.40
2018-06-02T09:24:54.246Z,5.40
2018-06-02T09:27:24.132Z,5.77
2018-06-02T09:29:53.036Z,5.60
2018-06-02T09:32:21.957Z,5.10
2018-06-02T09:34:50.851Z,5.97
2018-06-02T09:37:19.756Z,5.50
2018-06-02T09:39:48.670Z,4.83
2018-06-02T09:42:17.606Z,4.50
2018-06-02T09:44:47.277Z,4.00
2018-06-02T09:47:16.252Z,4.77
2018-06-02T09:49:45.156Z,3.93
2018-06-02T09:52:14.668Z,4.03
2018-06-02T09:54:44.758Z,3.57
2018-06-02T09:57:13.687Z,4.40
2018-06-02T09:59:42.617Z,3.63
2018-06-02T10:02:11.547Z,4.33
2018-06-02T10:04:40.520Z,6.20
2018-06-02T10:07:09.406Z,5.60
2018-06-02T10:09:39.195Z,4.80
2018-06-02T10:15:02.827Z,5.70
2018-06-02T10:21:23.220Z,5.43
2018-06-02T10:23:59.262Z,6.00
2018-06-02T10:37:18.272Z,6.60
2018-06-02T10:39:47.992Z,5.63
2018-06-02T10:42:16.903Z,4.47
2018-06-02T10:44:45.798Z,4.03
2018-06-02T10:47:14.803Z,4.10
2018-06-02T10:49:43.717Z,3.80
2018-06-02T10:52:12.653Z,2.90
2018-06-02T10:54:42.443Z,3.30
2018-06-02T10:57:11.540Z,2.87
2018-06-02T10:59:40.492Z,3.50
2018-06-02T11:02:09.782Z,3.10
2018-06-02T11:04:38.802Z,2.93
2018-06-02T11:07:07.792Z,3.37
2018-06-02T11:12:36.468Z,3.57
2018-06-02T11:15:05.416Z,3.37
2018-06-02T11:17:35.107Z,3.47
2018-06-02T11:20:05.681Z,3.67
2018-06-02T11:22:34.662Z,3.83
2018-06-02T11:25:04.431Z,3.67
2018-06-02T11:27:33.352Z,3.50
2018-06-02T11:30:03.067Z,3.20
2018-06-02T11:32:32.030Z,3.57
2018-06-02T11:35:01.027Z,3.80
2018-06-02T11:37:29.950Z,3.87
2018-06-02T11:39:59.668Z,4.63
2018-06-02T11:42:28.594Z,4.40
2018-06-02T11:44:57.522Z,3.90
2018-06-02T11:47:26.440Z,4.17
2018-06-02T11:49:55.368Z,4.70
2018-06-02T11:52:24.279Z,4.40
2018-06-02T11:54:53.435Z,4.37
2018-06-02T11:57:23.158Z,4.10
2018-06-02T11:59:52.076Z,3.67
2018-06-02T12:02:21.020Z,4.10
2018-06-02T12:04:50.178Z,4.00
2018-06-02T12:07:19.112Z,4.07
2018-06-02T12:09:48.900Z,4.20
2018-06-02T12:12:18.638Z,4.93
2018-06-02T12:14:47.566Z,4.40
2018-06-02T12:17:16.506Z,4.60
2018-06-02T12:19:45.482Z,4.80
2018-06-02T12:22:15.193Z,4.77
2018-06-02T12:24:44.979Z,4.77
2018-06-02T12:27:14.090Z,5.13
2018-06-02T12:29:43.868Z,4.87
2018-06-02T12:32:12.955Z,4.00
2018-06-02T12:34:41.937Z,4.73
2018-06-02T12:37:10.920Z,4.40
2018-06-02T12:39:39.951Z,4.87
2018-06-02T12:42:09.015Z,5.60
2018-06-02T12:44:39.438Z,5.20
2018-06-02T12:47:08.634Z,5.47
2018-06-02T12:49:38.698Z,4.40
2018-06-02T12:55:09.443Z,4.50
2018-06-02T12:57:38.685Z,4.17
2018-06-02T13:00:08.787Z,4.07
2018-06-02T13:02:37.874Z,4.20
2018-06-02T13:05:08.176Z,3.60
2018-06-02T13:07:37.325Z,3.93
2018-06-02T13:10:07.196Z,3.80
2018-06-02T13:12:36.184Z,3.87
2018-06-02T13:15:05.197Z,4.07
2018-06-02T13:17:34.296Z,4.37
2018-06-02T13:20:04.300Z,5.20
2018-06-02T13:22:34.178Z,5.57
2018-06-02T13:25:04.080Z,4.33
2018-06-02T13:27:33.218Z,4.57
2018-06-02T13:30:02.315Z,4.73
2018-06-02T13:32:33.367Z,4.50
2018-06-02T13:35:02.391Z,4.00
2018-06-02T13:37:31.407Z,4.40
2018-06-02T13:40:00.734Z,4.20
2018-06-02T13:42:30.462Z,3.70
2018-06-02T13:45:00.213Z,4.20
2018-06-02T13:47:29.563Z,4.17
2018-06-02T13:49:59.353Z,4.07
2018-06-02T13:52:28.321Z,4.23
2018-06-02T13:54:57.271Z,3.93
2018-06-02T13:57:27.122Z,4.37
2018-06-02T13:59:56.012Z,3.83
2018-06-02T14:02:27.464Z,3.90
2018-06-02T14:04:57.503Z,3.90
2018-06-02T14:07:26.424Z,4.00
2018-06-02T14:09:56.962Z,3.93
2018-06-02T14:12:26.720Z,4.00
2018-06-02T14:14:55.656Z,4.30
2018-06-02T14:17:25.345Z,4.57
2018-06-02T14:19:54.447Z,4.20
2018-06-02T14:22:23.343Z,4.20
2018-06-02T14:24:52.271Z,4.40
2018-06-02T14:27:21.215Z,4.17
2018-06-02T14:29:51.017Z,3.93
2018-06-02T14:32:19.944Z,3.90
2018-06-02T14:34:48.945Z,4.13
2018-06-02T14:37:17.831Z,4.30
2018-06-02T14:39:47.523Z,4.40
2018-06-02T14:42:16.551Z,4.00
2018-06-02T14:44:45.439Z,3.77
2018-06-02T14:47:14.376Z,4.23
2018-06-02T14:49:43.304Z,3.70
2018-06-02T14:52:13.049Z,3.90
2018-06-02T14:54:42.015Z,4.07
2018-06-02T14:57:10.952Z,4.17
2018-06-02T14:59:40.010Z,3.93
2018-06-02T15:02:08.903Z,4.00
2018-06-02T15:04:37.882Z,4.43
2018-06-02T15:07:06.788Z,4.07
2018-06-02T15:09:35.718Z,4.63
2018-06-02T15:12:04.637Z,4.10
2018-06-02T15:14:33.547Z,3.80
2018-06-02T15:17:03.230Z,3.47
2018-06-02T15:19:32.191Z,3.33
2018-06-02T15:22:01.118Z,2.87
2018-06-02T15:24:30.030Z,2.60
2018-06-02T15:26:58.964Z,3.10
2018-06-02T15:29:27.898Z,3.33
2018-06-02T15:31:57.602Z,2.93
2018-06-02T15:34:26.589Z,4.20
2018-06-02T15:36:55.528Z,4.50
2018-06-02T15:39:24.483Z,3.57
2018-06-02T15:41:53.403Z,3.60
2018-06-02T15:44:22.322Z,3.57
2018-06-02T15:46:51.265Z,3.30
2018-06-02T15:49:20.958Z,3.57
2018-06-02T15:51:49.881Z,3.40
2018-06-02T15:54:18.769Z,2.97
2018-06-02T15:56:47.757Z,3.33
2018-06-02T15:59:16.668Z,3.20
2018-06-02T16:01:45.883Z,3.43
2018-06-02T16:04:14.769Z,3.40
2018-06-02T16:06:43.704Z,2.90
2018-06-02T16:09:12.728Z,2.90
2018-06-02T16:11:41.654Z,2.97
2018-06-02T16:14:10.535Z,3.20
2018-06-02T17:53:38.229Z,3.43
2018-06-02T17:56:07.151Z,3.77
2018-06-02T17:58:36.076Z,3.83
2018-06-02T18:01:04.972Z,4.00
2018-06-02T18:03:36.497Z,3.17
2018-06-02T18:06:05.754Z,3.67
2018-06-02T18:08:34.685Z,3.77
2018-06-02T18:11:04.069Z,3.57
2018-06-02T18:13:33.589Z,3.80
2018-06-02T18:16:02.495Z,4.23
2018-06-02T18:18:33.360Z,3.87
2018-06-02T18:21:02.253Z,4.43
2018-06-02T18:23:31.240Z,4.10
2018-06-02T18:26:00.163Z,4.63
2018-06-02T18:28:29.039Z,4.30
2018-06-02T18:30:57.919Z,4.37
2018-06-02T18:33:26.815Z,4.03
2018-06-02T18:35:55.692Z,3.60
2018-06-02T18:38:24.579Z,4.63
2018-06-02T18:40:53.503Z,4.00
2018-06-02T18:43:22.435Z,4.43
2018-06-02T18:45:51.323Z,4.47
2018-06-02T18:48:20.980Z,4.37
2018-06-02T18:50:49.908Z,4.37
2018-06-02T18:53:18.815Z,4.50
2018-06-02T18:55:48.575Z,4.47
2018-06-02T18:58:17.506Z,4.50
2018-06-02T19:00:46.404Z,4.67
2018-06-02T19:03:16.083Z,4.90
2018-06-02T19:05:44.990Z,4.73
2018-06-02T19:08:13.908Z,5.30
2018-06-02T19:10:42.842Z,5.40
2018-06-02T19:13:11.785Z,4.77
2018-06-02T19:15:41.505Z,4.90
2018-06-02T19:18:10.411Z,4.63
2018-06-02T19:20:39.283Z,4.83
2018-06-02T19:23:08.177Z,5.63
2018-06-02T19:25:37.067Z,4.97
2018-06-02T19:28:05.943Z,5.27
2018-06-02T19:30:35.608Z,5.67
2018-06-02T19:33:04.535Z,5.20
2018-06-02T19:35:34.241Z,5.53
2018-06-02T19:38:03.098Z,5.13
2018-06-02T19:40:32.044Z,6.07
2018-06-02T19:43:00.936Z,6.00
2018-06-02T19:45:29.864Z,4.63
2018-06-02T19:47:58.841Z,5.20
2018-06-02T19:50:27.786Z,5.83
2018-06-02T19:52:56.747Z,5.80
2018-06-02T19:55:25.721Z,5.27
2018-06-02T19:57:54.712Z,5.30
2018-06-02T20:00:23.675Z,4.27
2018-06-02T20:02:52.651Z,4.87
2018-06-02T20:05:21.552Z,4.70
2018-06-02T20:07:51.329Z,5.60
2018-06-02T20:10:20.258Z,4.83
2018-06-02T20:12:49.177Z,4.60
2018-06-02T20:15:18.066Z,5.40
2018-06-02T20:17:47.027Z,5.70
2018-06-02T20:20:15.967Z,5.70
2018-06-02T20:22:44.819Z,5.10
2018-06-02T20:25:13.724Z,5.80
2018-06-02T20:27:42.701Z,5.43
2018-06-02T20:30:11.638Z,4.90
2018-06-02T20:32:40.593Z,5.33
2018-06-02T20:35:09.495Z,5.67
2018-06-02T20:37:38.440Z,6.33
2018-06-02T20:40:08.172Z,5.73
2018-06-02T20:42:37.075Z,5.90
2018-06-02T20:45:05.980Z,5.63
2018-06-02T20:47:34.954Z,5.80
2018-06-02T22:06:14.889Z,6.10
2018-06-02T22:08:43.832Z,6.93
2018-06-02T22:11:12.759Z,43.00
2018-06-02T22:13:42.522Z,12.23
2018-06-02T22:16:11.444Z,5.93
2018-06-02T22:18:40.385Z,5.67
2018-06-02T22:21:09.298Z,5.63
2018-06-02T22:23:38.995Z,5.93
2018-06-02T22:26:07.968Z,5.73
2018-06-02T22:28:36.855Z,5.33
2018-06-02T22:31:05.752Z,6.03
2018-06-02T22:33:34.734Z,5.50
2018-06-02T22:36:03.647Z,5.40
2018-06-02T22:38:32.599Z,5.40
2018-06-02T22:41:01.477Z,5.53
2018-06-02T22:43:30.418Z,5.50
2018-06-02T22:45:59.327Z,5.83
2018-06-02T22:48:28.307Z,5.57
2018-06-02T22:50:57.231Z,4.90
2018-06-02T22:53:39.960Z,5.17
2018-06-02T22:56:09.061Z,5.47
2018-06-02T22:58:37.993Z,5.57
2018-06-02T23:01:06.965Z,5.37
2018-06-02T23:03:35.871Z,5.60
2018-06-02T23:06:04.815Z,6.37
2018-06-02T23:08:33.904Z,6.03
2018-06-02T23:11:02.847Z,6.00
2018-06-02T23:13:31.743Z,5.80
2018-06-02T23:16:00.720Z,5.77
2018-06-02T23:18:29.643Z,6.37
2018-06-02T23:20:58.543Z,6.23
2018-06-02T23:23:27.419Z,6.50
2018-06-02T23:25:56.319Z,6.43
2018-06-02T23:28:25.256Z,6.10
2018-06-02T23:30:54.928Z,6.93
2018-06-02T23:33:23.857Z,6.77
2018-06-02T23:35:53.503Z,6.23
2018-06-02T23:38:22.397Z,7.37
2018-06-02T23:40:51.367Z,6.47
2018-06-02T23:43:20.261Z,6.33
2018-06-02T23:45:49.179Z,6.40
2018-06-02T23:48:18.103Z,6.30
2018-06-02T23:50:47.048Z,6.40
2018-06-02T23:53:15.951Z,6.90
2018-06-02T23:55:44.901Z,6.90
2018-06-02T23:58:13.803Z,6.73
